createdAt,value
2022-11-03T00:01:42.174Z,100285.41
2022-11-03T00:04:12.865Z,100284.03
2022-11-03T00:06:41.595Z,100287.97
2022-11-03T00:09:12.541Z,100292.09
2022-11-03T00:11:44.099Z,100293.94
2022-11-03T00:14:12.940Z,100297.44
2022-11-03T00:16:41.383Z,100305.25
2022-11-03T00:19:11.200Z,100304.78
2022-11-03T00:21:39.890Z,100311.13
2022-11-03T00:24:08.375Z,100309.66
2022-11-03T00:26:37.422Z,100303.88
2022-11-03T00:29:11.366Z,100308.56
2022-11-03T00:31:40.907Z,100313.84
2022-11-03T00:34:09.871Z,100308.84
2022-11-03T00:36:40.001Z,100308.41
2022-11-03T00:39:08.232Z,100314.78
2022-11-03T00:41:36.400Z,100316.81
2022-11-03T00:44:04.426Z,100325.81
2022-11-03T00:46:35.737Z,100326.19
2022-11-03T00:49:04.455Z,100325.91
2022-11-03T00:51:34.439Z,100329.78
2022-11-03T00:54:04.038Z,100331.00
2022-11-03T00:56:33.839Z,100335.03
2022-11-03T00:59:03.199Z,100346.06
2022-11-03T01:01:39.247Z,100343.78
2022-11-03T01:04:28.824Z,100334.50
2022-11-03T01:06:59.928Z,100343.50
2022-11-03T01:09:29.366Z,100345.53
2022-11-03T01:12:00.285Z,100344.25
2022-11-03T01:14:30.455Z,100348.13
2022-11-03T01:16:59.933Z,100354.47
2022-11-03T01:19:28.750Z,100347.66
2022-11-03T01:21:56.953Z,100350.69
2022-11-03T01:24:24.887Z,100361.69
2022-11-03T01:26:52.999Z,100348.97
2022-11-03T01:29:22.458Z,100354.47
2022-11-03T01:31:50.683Z,100368.13
2022-11-03T01:34:22.857Z,100365.00
2022-11-03T01:36:51.182Z,100370.50
2022-11-03T01:39:20.595Z,100372.53
2022-11-03T01:41:51.671Z,100369.25
2022-11-03T01:44:31.987Z,100372.28
2022-11-03T01:47:12.859Z,100369.78
2022-11-03T01:49:48.367Z,100370.78
2022-11-03T01:52:21.177Z,100368.31
2022-11-03T01:54:53.304Z,100364.00
2022-11-03T01:57:25.007Z,100366.00
2022-11-03T01:59:53.918Z,100379.69
2022-11-03T02:02:22.157Z,100375.56
2022-11-03T02:04:52.419Z,100377.75
2022-11-03T02:07:26.338Z,100376.44
2022-11-03T02:09:54.334Z,100377.47
2022-11-03T02:12:23.861Z,100379.50
2022-11-03T02:14:55.859Z,100377.66
2022-11-03T02:17:25.334Z,100380.50
2022-11-03T02:19:59.746Z,100378.03
2022-11-03T02:22:57.369Z,100377.38
2022-11-03T02:25:52.101Z,100375.91
2022-11-03T02:28:23.499Z,100376.44
2022-11-03T02:31:01.172Z,100372.66
2022-11-03T02:33:36.913Z,100381.75
2022-11-03T02:36:12.139Z,100377.94
2022-11-03T02:38:47.246Z,100377.47
2022-11-03T02:41:19.086Z,100375.19
2022-11-03T02:43:50.180Z,100371.41
2022-11-03T02:46:19.481Z,100369.28
2022-11-03T02:48:48.878Z,100370.00
2022-11-03T02:51:17.063Z,100373.84
2022-11-03T02:53:53.915Z,100374.53
2022-11-03T02:56:25.849Z,100377.56
2022-11-03T02:58:59.656Z,100376.44
2022-11-03T03:01:35.112Z,100380.59
2022-11-03T03:04:07.578Z,100379.31
2022-11-03T03:06:40.975Z,100376.34
2022-11-03T03:09:13.318Z,100381.19
2022-11-03T03:11:44.896Z,100371.09
2022-11-03T03:14:15.902Z,100382.91
2022-11-03T03:16:52.859Z,100378.94
2022-11-03T03:19:29.927Z,100383.28
2022-11-03T03:22:02.613Z,100381.31
2022-11-03T03:24:38.251Z,100379.38
2022-11-03T03:27:12.352Z,100380.38
2022-11-03T03:29:45.057Z,100378.63
2022-11-03T03:32:16.864Z,100381.59
2022-11-03T03:34:47.583Z,100380.25
2022-11-03T03:37:18.159Z,100377.78
2022-11-03T03:39:50.752Z,100377.97
2022-11-03T03:42:22.867Z,100374.97
2022-11-03T03:44:52.614Z,100373.50
2022-11-03T03:47:25.196Z,100374.50
2022-11-03T03:49:53.169Z,100379.16
2022-11-03T03:52:21.906Z,100373.38
2022-11-03T03:54:50.141Z,100370.88
2022-11-03T03:57:23.657Z,100367.72
2022-11-03T03:59:51.823Z,100369.88
2022-11-03T04:02:20.061Z,100372.75
2022-11-03T04:04:48.209Z,100369.44
2022-11-03T04:07:35.842Z,100373.72
2022-11-03T04:10:08.945Z,100375.56
2022-11-03T04:12:56.518Z,100376.38
2022-11-03T04:15:41.752Z,100371.09
2022-11-03T04:18:27.482Z,100371.25
2022-11-03T04:21:13.576Z,100375.06
2022-11-03T04:23:41.591Z,100370.91
2022-11-03T04:26:14.298Z,100367.78
2022-11-03T04:28:44.631Z,100363.66
2022-11-03T04:31:14.867Z,100367.63
2022-11-03T04:33:47.053Z,100357.19
2022-11-03T04:36:19.005Z,100354.53
2022-11-03T04:38:47.502Z,100359.19
2022-11-03T04:41:19.037Z,100367.97
2022-11-03T04:43:48.840Z,100366.97
2022-11-03T04:46:18.846Z,100368.13
2022-11-03T04:48:47.699Z,100371.91
2022-11-03T04:51:19.477Z,100378.22
2022-11-03T04:53:53.890Z,100373.19
2022-11-03T04:56:24.752Z,100368.88
2022-11-03T04:58:55.473Z,100375.47
2022-11-03T05:01:25.148Z,100371.34
2022-11-03T05:03:55.565Z,100372.66
2022-11-03T05:06:25.107Z,100373.94
2022-11-03T05:08:56.834Z,100386.91
2022-11-03T05:11:30.984Z,100384.75
2022-11-03T05:14:02.642Z,100382.75
2022-11-03T05:16:32.252Z,100380.75
2022-11-03T05:19:00.672Z,100384.03
2022-11-03T05:21:29.398Z,100383.88
2022-11-03T05:24:04.789Z,100388.03
2022-11-03T05:26:36.331Z,100384.38
2022-11-03T05:29:14.891Z,100383.19
2022-11-03T05:31:44.838Z,100386.50
2022-11-03T05:34:33.682Z,100384.03
2022-11-03T05:37:03.905Z,100388.81
2022-11-03T05:39:35.777Z,100393.94
2022-11-03T05:42:14.495Z,100396.25
2022-11-03T05:44:43.848Z,100386.47
2022-11-03T05:47:20.240Z,100393.25
2022-11-03T05:49:49.067Z,100399.41
2022-11-03T05:52:23.202Z,100401.22
2022-11-03T05:54:51.688Z,100408.19
2022-11-03T05:57:20.722Z,100401.22
2022-11-03T05:59:52.554Z,100405.53
2022-11-03T06:02:37.445Z,100402.88
2022-11-03T06:05:16.576Z,100402.06
2022-11-03T06:07:45.035Z,100400.22
2022-11-03T06:10:26.195Z,100403.72
2022-11-03T06:12:57.303Z,100410.03
2022-11-03T06:15:32.083Z,100413.50
2022-11-03T06:18:01.357Z,100420.66
2022-11-03T06:20:30.058Z,100416.00
2022-11-03T06:22:58.251Z,100422.97
2022-11-03T06:25:31.167Z,100427.91
2022-11-03T06:28:05.438Z,100432.22
2022-11-03T06:30:37.258Z,100438.19
2022-11-03T06:33:14.081Z,100433.53
2022-11-03T06:35:42.365Z,100424.25
2022-11-03T06:38:18.121Z,100425.34
2022-11-03T06:40:46.908Z,100417.88
2022-11-03T06:43:21.739Z,100420.84
2022-11-03T06:45:57.047Z,100403.34
2022-11-03T06:48:29.714Z,100407.31
2022-11-03T06:50:59.270Z,100411.28
2022-11-03T06:53:30.857Z,100405.09
2022-11-03T06:55:59.271Z,100397.59
2022-11-03T06:58:31.345Z,100396.50
2022-11-03T07:01:04.846Z,100379.69
2022-11-03T07:03:35.598Z,100387.59
2022-11-03T07:06:14.260Z,100386.16
2022-11-03T07:08:44.749Z,100399.31
2022-11-03T07:11:18.631Z,100404.19
2022-11-03T07:13:49.039Z,100411.06
2022-11-03T07:16:28.743Z,100415.50
2022-11-03T07:19:00.179Z,100409.09
2022-11-03T07:21:36.091Z,100413.03
2022-11-03T07:24:14.547Z,100407.97
2022-11-03T07:26:47.221Z,100406.44
2022-11-03T07:29:21.652Z,100422.31
2022-11-03T07:31:54.643Z,100424.25
2022-11-03T07:34:24.875Z,100440.50
2022-11-03T07:36:55.854Z,100428.00
2022-11-03T07:39:24.091Z,100425.97
2022-11-03T07:41:54.169Z,100419.66
2022-11-03T07:44:23.098Z,100425.16
2022-11-03T07:46:53.218Z,100418.63
2022-11-03T07:49:28.925Z,100408.81
2022-11-03T07:51:58.614Z,100411.94
2022-11-03T07:54:30.336Z,100408.06
2022-11-03T07:57:00.199Z,100409.34
2022-11-03T07:59:32.268Z,100392.53
2022-11-03T08:02:03.063Z,100392.81
2022-11-03T08:04:33.439Z,100392.44
2022-11-03T08:07:01.498Z,100396.34
2022-11-03T08:09:29.463Z,100392.31
2022-11-03T08:11:57.426Z,100387.09
2022-11-03T08:14:25.533Z,100387.16
2022-11-03T08:16:53.591Z,100387.44
2022-11-03T08:19:22.927Z,100384.81
2022-11-03T08:21:50.870Z,100396.59
2022-11-03T08:24:18.898Z,100391.75
2022-11-03T08:26:46.845Z,100384.66
2022-11-03T08:29:17.633Z,100387.38
2022-11-03T08:31:45.762Z,100388.84
2022-11-03T08:34:14.032Z,100382.97
2022-11-03T08:36:44.000Z,100392.03
2022-11-03T08:39:11.991Z,100384.47
2022-11-03T08:41:40.016Z,100396.19
2022-11-03T08:44:07.990Z,100390.66
2022-11-03T08:46:36.410Z,100391.13
2022-11-03T08:49:04.478Z,100390.75
2022-11-03T08:51:32.579Z,100394.28
2022-11-03T08:54:01.933Z,100385.25
2022-11-03T08:56:30.347Z,100383.22
2022-11-03T08:58:58.309Z,100387.16
2022-11-03T09:01:26.322Z,100384.91
2022-11-03T09:03:54.424Z,100383.50
2022-11-03T09:06:22.502Z,100383.94
2022-11-03T09:11:41.590Z,100381.09
2022-11-03T09:14:09.730Z,100379.06
2022-11-03T09:16:37.664Z,100377.81
2022-11-03T09:19:07.310Z,100379.09
2022-11-03T09:21:39.020Z,100379.72
2022-11-03T09:24:07.799Z,100372.34
2022-11-03T09:26:35.766Z,100374.19
2022-11-03T09:29:05.427Z,100368.03
2022-11-03T09:31:38.488Z,100366.25
2022-11-03T09:34:06.762Z,100376.56
2022-11-03T09:36:35.339Z,100377.78
2022-11-03T09:39:03.399Z,100375.75
2022-11-03T09:41:53.843Z,100374.34
2022-11-03T09:44:22.132Z,100379.50
2022-11-03T09:46:58.278Z,100384.28
2022-11-03T09:49:27.388Z,100377.78
2022-11-03T09:51:57.045Z,100376.13
2022-11-03T09:54:25.377Z,100384.44
2022-11-03T09:56:53.812Z,100380.53
2022-11-03T09:59:24.990Z,100380.34
2022-11-03T10:01:58.081Z,100385.06
2022-11-03T10:04:29.055Z,100375.19
2022-11-03T10:06:58.738Z,100381.38
2022-11-03T10:09:30.063Z,100390.03
2022-11-03T10:11:58.121Z,100383.22
2022-11-03T10:14:27.695Z,100378.69
2022-11-03T10:17:06.354Z,100374.81
2022-11-03T10:19:34.524Z,100363.28
2022-11-03T10:22:02.591Z,100350.72
2022-11-03T10:24:30.615Z,100363.72
2022-11-03T10:26:59.179Z,100338.19
2022-11-03T10:29:32.424Z,100335.94
2022-11-03T10:32:02.719Z,100332.25
2022-11-03T10:34:35.363Z,100334.72
2022-11-03T10:37:23.935Z,100332.63
2022-11-03T10:39:53.163Z,100337.16
2022-11-03T10:42:23.019Z,100322.78
2022-11-03T10:44:54.971Z,100315.38
2022-11-03T10:47:26.406Z,100308.81
2022-11-03T10:49:56.304Z,100313.94
2022-11-03T10:52:26.407Z,100305.94
2022-11-03T10:54:57.739Z,100313.97
2022-11-03T10:57:26.770Z,100312.34
2022-11-03T10:59:56.899Z,100303.69
2022-11-03T11:02:28.630Z,100306.75
2022-11-03T11:05:06.808Z,100296.69
2022-11-03T11:07:37.540Z,100286.56
2022-11-03T11:10:16.261Z,100285.53
2022-11-03T11:13:32.968Z,100291.88
2022-11-03T11:16:03.563Z,100282.63
2022-11-03T11:19:12.321Z,100282.41
2022-11-03T11:22:23.281Z,100284.88
2022-11-03T11:25:02.932Z,100285.28
2022-11-03T11:28:08.584Z,100286.53
2022-11-03T11:31:23.827Z,100280.38
2022-11-03T11:34:31.462Z,100272.34
2022-11-03T11:37:36.963Z,100269.66
2022-11-03T11:40:13.216Z,100265.72
2022-11-03T11:43:13.554Z,100263.28
2022-11-03T11:46:18.669Z,100260.59
2022-11-03T11:48:46.845Z,100263.03
2022-11-03T11:51:16.306Z,100254.59
2022-11-03T11:53:50.967Z,100247.38
2022-11-03T11:56:22.503Z,100257.69
2022-11-03T11:58:54.018Z,100253.97
2022-11-03T12:01:24.363Z,100255.41
2022-11-03T12:03:54.974Z,100256.03
2022-11-03T12:06:35.343Z,100245.47
2022-11-03T12:09:07.460Z,100248.78
2022-11-03T12:11:45.931Z,100240.53
2022-11-03T12:14:33.881Z,100239.50
2022-11-03T12:17:34.471Z,100236.81
2022-11-03T12:20:22.487Z,100230.63
2022-11-03T12:23:10.887Z,100230.22
2022-11-03T12:25:40.307Z,100222.19
2022-11-03T12:28:08.993Z,100227.13
2022-11-03T12:30:40.172Z,100230.44
2022-11-03T12:33:08.911Z,100221.97
2022-11-03T12:35:37.211Z,100214.16
2022-11-03T12:38:06.548Z,100208.56
2022-11-03T12:40:34.484Z,100208.56
2022-11-03T12:43:02.471Z,100202.41
2022-11-03T12:45:33.255Z,100214.34
2022-11-03T12:48:01.252Z,100209.22
2022-11-03T12:50:29.555Z,100212.13
2022-11-03T12:52:57.521Z,100201.63
2022-11-03T12:57:55.605Z,100212.34
2022-11-03T13:00:24.254Z,100212.97
2022-11-03T13:02:52.451Z,100220.78
2022-11-03T13:05:25.464Z,100216.88
2022-11-03T13:07:54.261Z,100217.25
2022-11-03T13:10:22.276Z,100220.34
2022-11-03T13:12:51.818Z,100214.78
2022-11-03T13:15:20.357Z,100213.75
2022-11-03T13:20:37.112Z,100223.84
2022-11-03T13:23:06.445Z,100218.47
2022-11-03T13:25:35.176Z,100221.34
2022-11-03T13:28:05.131Z,100224.03
2022-11-03T13:30:34.248Z,100220.53
2022-11-03T13:33:02.467Z,100228.56
2022-11-03T13:35:30.680Z,100221.34
2022-11-03T13:37:58.724Z,100217.66
2022-11-03T13:40:54.826Z,100217.66
2022-11-03T13:43:16.389Z,100207.75
2022-11-03T13:45:47.021Z,100220.91
2022-11-03T13:51:05.235Z,100212.88
2022-11-03T13:56:22.735Z,100214.16
2022-11-03T14:01:41.056Z,100207.34
2022-11-03T14:06:57.991Z,100205.50
2022-11-03T14:09:26.441Z,100204.88
2022-11-03T14:12:12.050Z,100206.38
2022-11-03T14:14:41.453Z,100201.44
2022-11-03T14:17:10.072Z,100207.19
2022-11-03T14:19:43.744Z,100197.16
2022-11-03T14:22:14.148Z,100199.22
2022-11-03T14:24:42.102Z,100196.13
2022-11-03T14:27:11.581Z,100187.69
2022-11-03T14:29:41.235Z,100182.34
2022-11-03T14:32:09.260Z,100184.63
2022-11-03T14:34:38.510Z,100176.38
2022-11-03T14:37:08.899Z,100178.69
2022-11-03T14:39:37.731Z,100175.59
2022-11-03T14:42:05.895Z,100178.69
2022-11-03T14:44:35.619Z,100177.47
2022-11-03T14:47:14.514Z,100181.59
2022-11-03T14:49:42.944Z,100179.34
2022-11-03T14:52:10.887Z,100192.31
2022-11-03T14:54:38.982Z,100180.41
2022-11-03T14:57:07.160Z,100183.06
2022-11-03T14:59:35.185Z,100180.78
2022-11-03T15:02:09.165Z,100177.31
2022-11-03T15:04:37.192Z,100181.63
2022-11-03T15:07:05.155Z,100184.13
2022-11-03T15:09:33.148Z,100177.94
2022-11-03T15:12:01.466Z,100173.44
2022-11-03T15:14:31.019Z,100173.84
2022-11-03T15:17:08.200Z,100171.78
2022-11-03T15:19:37.587Z,100166.44
2022-11-03T15:22:05.581Z,100171.53
2022-11-03T15:27:22.875Z,100181.81
2022-11-03T15:29:51.042Z,100170.91
2022-11-03T15:32:19.022Z,100170.47
2022-11-03T15:34:48.476Z,100165.97
2022-11-03T15:37:16.508Z,100174.19
2022-11-03T15:39:44.474Z,100171.28
2022-11-03T15:42:12.414Z,100164.50
2022-11-03T15:44:40.821Z,100159.56
2022-11-03T15:47:09.240Z,100162.63
2022-11-03T15:49:37.295Z,100153.38
2022-11-03T15:52:06.917Z,100147.44
2022-11-03T15:54:39.801Z,100149.47
2022-11-03T15:57:10.324Z,100141.66
2022-11-03T15:59:38.567Z,100151.94
2022-11-03T16:02:35.712Z,100151.31
2022-11-03T16:05:02.318Z,100156.22
2022-11-03T16:07:32.055Z,100152.13
2022-11-03T16:10:00.051Z,100154.16
2022-11-03T16:12:28.230Z,100144.91
2022-11-03T16:14:56.238Z,100144.47
2022-11-03T16:17:24.203Z,100142.81
2022-11-03T16:19:52.233Z,100138.94
2022-11-03T16:22:20.221Z,100139.13
2022-11-03T16:24:50.116Z,100139.13
2022-11-03T16:27:19.125Z,100130.50
2022-11-03T16:29:47.969Z,100133.56
2022-11-03T16:32:16.153Z,100137.44
2022-11-03T16:34:44.851Z,100128.00
2022-11-03T16:37:12.841Z,100124.72
2022-11-03T16:39:41.757Z,100132.09
2022-11-03T16:42:11.128Z,100134.97
2022-11-03T16:44:39.074Z,100127.78
2022-11-03T16:47:07.210Z,100131.47
2022-11-03T16:49:37.944Z,100134.97
2022-11-03T16:52:09.446Z,100132.28
2022-11-03T16:54:37.773Z,100129.81
2022-11-03T16:57:05.806Z,100132.47
2022-11-03T16:59:35.316Z,100126.31
2022-11-03T17:02:03.451Z,100134.13
2022-11-03T17:04:31.537Z,100133.31
2022-11-03T17:06:59.791Z,100132.47
2022-11-03T17:09:27.768Z,100128.78
2022-11-03T17:11:55.731Z,100126.94
2022-11-03T17:14:23.718Z,100131.25
2022-11-03T17:16:53.211Z,100135.59
2022-11-03T17:19:21.254Z,100123.06
2022-11-03T17:21:49.279Z,100135.38
2022-11-03T17:24:17.401Z,100127.38
2022-11-03T17:26:53.223Z,100124.72
2022-11-03T17:29:24.976Z,100138.06
2022-11-03T17:31:55.211Z,100128.41
2022-11-03T17:34:25.687Z,100132.91
2022-11-03T17:36:54.273Z,100128.59
2022-11-03T17:39:29.812Z,100126.75
2022-11-03T17:42:07.931Z,100124.47
2022-11-03T17:44:35.956Z,100118.50
2022-11-03T17:47:05.484Z,100119.53
2022-11-03T17:49:33.615Z,100121.38
2022-11-03T17:52:01.891Z,100111.53
2022-11-03T17:54:31.417Z,100110.69
2022-11-03T17:57:01.179Z,100106.00
2022-11-03T17:59:29.804Z,100114.63
2022-11-03T18:01:58.016Z,100120.59
2022-11-03T18:04:27.545Z,100117.72
2022-11-03T18:06:56.217Z,100111.16
2022-11-03T18:09:24.438Z,100117.31
2022-11-03T18:12:10.849Z,100108.31
2022-11-03T18:14:39.181Z,100113.41
2022-11-03T18:17:07.162Z,100113.22
2022-11-03T18:19:36.701Z,100109.53
2022-11-03T18:22:05.403Z,100105.84
2022-11-03T18:24:33.378Z,100109.31
2022-11-03T18:27:01.343Z,100101.31
2022-11-03T18:29:30.124Z,100097.81
2022-11-03T18:31:58.840Z,100089.81
2022-11-03T18:34:28.306Z,100091.47
2022-11-03T18:36:57.870Z,100094.31
2022-11-03T18:39:29.834Z,100090.84
2022-11-03T18:41:57.816Z,100090.00
2022-11-03T18:44:28.394Z,100093.50
2022-11-03T18:46:57.477Z,100091.03
2022-11-03T18:49:27.515Z,100100.06
2022-11-03T18:52:03.372Z,100080.78
2022-11-03T18:54:34.003Z,100089.19
2022-11-03T18:57:03.565Z,100092.06
2022-11-03T18:59:35.076Z,100088.75
2022-11-03T19:02:03.454Z,100091.63
2022-11-03T19:04:32.314Z,100090.16
2022-11-03T19:07:03.336Z,100087.72
2022-11-03T19:09:31.347Z,100086.28
2022-11-03T19:11:59.486Z,100082.16
2022-11-03T19:14:31.981Z,100090.56
2022-11-03T19:17:21.986Z,100085.00
2022-11-03T19:19:49.964Z,100087.88
2022-11-03T19:22:21.067Z,100083.13
2022-11-03T19:24:49.107Z,100091.31
2022-11-03T19:27:21.913Z,100088.84
2022-11-03T19:29:57.434Z,100091.72
2022-11-03T19:32:28.296Z,100095.63
2022-11-03T19:35:00.158Z,100093.34
2022-11-03T19:37:35.121Z,100092.91
2022-11-03T19:40:06.111Z,100102.97
2022-11-03T19:42:37.440Z,100097.81
2022-11-03T19:45:07.955Z,100094.31
2022-11-03T19:47:47.841Z,100101.50
2022-11-03T19:50:23.996Z,100092.09
2022-11-03T19:52:56.101Z,100093.09
2022-11-03T19:55:28.721Z,100099.44
2022-11-03T19:57:58.976Z,100102.31
2022-11-03T20:00:27.071Z,100108.84
2022-11-03T20:02:55.048Z,100105.38
2022-11-03T20:05:23.061Z,100108.41
2022-11-03T20:07:51.226Z,100111.09
2022-11-03T20:10:20.932Z,100108.00
2022-11-03T20:12:49.399Z,100110.03
2022-11-03T20:15:19.386Z,100102.44
2022-11-03T20:17:48.685Z,100100.97
2022-11-03T20:20:18.728Z,100106.69
2022-11-03T20:22:55.030Z,100104.44
2022-11-03T20:25:27.242Z,100095.19
2022-11-03T20:27:56.619Z,100104.38
2022-11-03T20:30:27.034Z,100103.94
2022-11-03T20:32:56.621Z,100097.19
2022-11-03T20:35:27.237Z,100098.19
2022-11-03T20:37:59.313Z,100101.25
2022-11-03T20:40:32.484Z,100098.97
2022-11-03T20:43:03.271Z,100086.81
2022-11-03T20:45:31.589Z,100100.31
2022-11-03T20:47:59.852Z,100095.19
2022-11-03T20:50:31.200Z,100096.44
2022-11-03T20:53:01.251Z,100092.13
2022-11-03T20:55:30.838Z,100093.31
2022-11-03T20:57:59.925Z,100095.34
2022-11-03T21:00:28.650Z,100094.91
2022-11-03T21:02:57.226Z,100100.66
2022-11-03T21:05:27.013Z,100102.47
2022-11-03T21:07:56.937Z,100100.84
2022-11-03T21:10:25.540Z,100095.50
2022-11-03T21:12:55.563Z,100099.81
2022-11-03T21:16:03.700Z,100104.13
2022-11-03T21:18:48.887Z,100102.47
2022-11-03T21:21:21.054Z,100103.09
2022-11-03T21:23:49.405Z,100097.97
2022-11-03T21:26:17.629Z,100101.06
2022-11-03T21:28:47.553Z,100103.34
2022-11-03T21:31:15.531Z,100101.31
2022-11-03T21:33:43.532Z,100101.94
2022-11-03T21:36:11.562Z,100100.09
2022-11-03T21:38:39.605Z,100099.09
2022-11-03T21:41:26.610Z,100092.75
2022-11-03T21:44:13.212Z,100093.56
2022-11-03T21:46:41.871Z,100096.84
2022-11-03T21:49:27.803Z,100100.13
2022-11-03T21:51:55.946Z,100105.13
2022-11-03T21:54:23.949Z,100099.59
2022-11-03T21:56:51.968Z,100105.19
2022-11-03T21:59:25.015Z,100103.94
2022-11-03T22:01:55.173Z,100104.56
2022-11-03T22:04:24.494Z,100098.22
2022-11-03T22:06:56.675Z,100106.66
2022-11-03T22:09:25.489Z,100104.44
2022-11-03T22:11:54.117Z,100114.31
2022-11-03T22:14:23.581Z,100105.72
2022-11-03T22:16:50.724Z,100112.72
2022-11-03T22:19:34.026Z,100103.31
2022-11-03T22:22:21.436Z,100101.69
2022-11-03T22:25:03.299Z,100102.75
2022-11-03T22:27:33.407Z,100100.34
2022-11-03T22:30:21.091Z,100094.38
2022-11-03T22:32:53.156Z,100092.34
2022-11-03T22:35:39.348Z,100093.56
2022-11-03T22:38:09.525Z,100096.22
2022-11-03T22:40:56.040Z,100090.91
2022-11-03T22:43:42.137Z,100095.41
2022-11-03T22:46:13.213Z,100093.16
2022-11-03T22:48:41.298Z,100088.03
2022-11-03T22:51:11.378Z,100087.59
2022-11-03T22:53:56.867Z,100095.78
2022-11-03T22:56:26.322Z,100094.97
2022-11-03T22:58:54.485Z,100102.31
2022-11-03T23:01:26.637Z,100101.31
2022-11-03T23:03:55.227Z,100085.31
2022-11-03T23:06:25.467Z,100095.97
2022-11-03T23:08:54.658Z,100097.19
2022-11-03T23:11:24.703Z,100095.75
2022-11-03T23:13:55.809Z,100102.31
2022-11-03T23:16:27.025Z,100092.66
2022-11-03T23:19:13.247Z,100097.38
2022-11-03T23:21:41.435Z,100093.84
2022-11-03T23:24:27.337Z,100083.38
2022-11-03T23:26:55.598Z,100083.56
2022-11-03T23:29:25.177Z,100085.59
2022-11-03T23:31:54.927Z,100089.28
2022-11-03T23:34:24.904Z,100089.69
2022-11-03T23:36:53.685Z,100084.53
2022-11-03T23:39:29.031Z,100073.88
2022-11-03T23:41:57.098Z,100074.06
2022-11-03T23:44:25.056Z,100064.44
2022-11-03T23:47:20.522Z,100076.94
2022-11-03T23:49:48.723Z,100068.31
2022-11-03T23:52:16.677Z,100063.19
2022-11-03T23:54:44.682Z,100063.38
2022-11-03T23:57:29.963Z,100059.25
2022-11-03T23:59:57.931Z,100059.25
